createdAt,value
2018-09-21T00:01:33.810Z,73.30
2018-09-21T00:06:36.924Z,73.50
2018-09-21T00:11:40.061Z,73.50
2018-09-21T00:16:43.156Z,73.50
2018-09-21T00:21:46.269Z,73.80
2018-09-21T00:26:49.377Z,73.80
2018-09-21T00:31:52.485Z,73.60
2018-09-21T00:36:55.624Z,74.00
2018-09-21T00:41:58.728Z,73.70
2018-09-21T00:47:01.844Z,74.00
2018-09-21T00:52:05.505Z,74.10
2018-09-21T00:57:08.600Z,74.20
2018-09-21T01:02:11.836Z,74.20
2018-09-21T01:07:15.425Z,74.40
2018-09-21T01:12:18.528Z,74.30
2018-09-21T01:17:21.632Z,74.50
2018-09-21T01:22:24.812Z,75.00
2018-09-21T01:27:27.916Z,74.10
2018-09-21T01:32:31.025Z,74.60
2018-09-21T01:37:34.137Z,74.30
2018-09-21T01:42:37.303Z,74.40
2018-09-21T01:47:40.407Z,74.70
2018-09-21T01:52:43.510Z,74.90
2018-09-21T01:57:46.623Z,75.00
2018-09-21T02:02:49.736Z,74.90
2018-09-21T02:07:52.835Z,74.90
2018-09-21T02:12:55.932Z,75.10
2018-09-21T02:17:59.044Z,75.10
2018-09-21T02:23:02.162Z,75.40
2018-09-21T02:28:05.721Z,75.80
2018-09-21T02:33:08.836Z,75.70
2018-09-21T02:38:11.940Z,75.60
2018-09-21T02:43:15.056Z,75.90
2018-09-21T02:48:18.175Z,75.70
2018-09-21T02:53:21.268Z,75.70
2018-09-21T02:58:24.383Z,76.00
2018-09-21T03:03:27.486Z,76.20
2018-09-21T03:08:30.610Z,76.20
2018-09-21T03:13:33.719Z,76.10
2018-09-21T03:18:36.968Z,76.30
2018-09-21T03:23:40.078Z,76.20
2018-09-21T03:28:43.189Z,76.30
2018-09-21T03:33:46.324Z,76.10
2018-09-21T03:38:49.431Z,76.20
2018-09-21T03:43:52.536Z,76.10
2018-09-21T03:48:55.648Z,76.50
2018-09-21T03:53:58.848Z,76.40
2018-09-21T03:59:01.966Z,76.30
2018-09-21T04:04:05.637Z,76.40
2018-09-21T04:09:09.820Z,76.60
2018-09-21T04:14:12.944Z,76.30
2018-09-21T04:19:16.069Z,76.30
2018-09-21T04:24:19.198Z,76.70
2018-09-21T04:29:22.313Z,76.60
2018-09-21T04:34:25.442Z,76.90
2018-09-21T04:39:28.545Z,76.50
2018-09-21T04:44:31.652Z,76.80
2018-09-21T04:49:34.792Z,77.20
2018-09-21T04:54:37.909Z,77.30
2018-09-21T04:59:41.024Z,77.20
2018-09-21T05:04:44.369Z,78.70
2018-09-21T05:09:47.467Z,78.20
2018-09-21T05:14:50.585Z,78.60
2018-09-21T05:19:53.866Z,78.50
2018-09-21T05:24:56.969Z,78.90
2018-09-21T05:30:00.093Z,79.30
2018-09-21T05:35:03.383Z,79.20
2018-09-21T05:40:06.432Z,79.40
2018-09-21T05:45:09.553Z,79.40
2018-09-21T05:50:12.681Z,79.30
2018-09-21T05:55:15.789Z,79.80
2018-09-21T06:00:18.912Z,79.80
2018-09-21T06:05:22.036Z,80.20
2018-09-21T06:10:25.165Z,80.30
2018-09-21T06:15:28.289Z,80.80
2018-09-21T06:20:31.421Z,80.20
2018-09-21T06:25:34.542Z,80.10
2018-09-21T06:30:37.742Z,80.50
2018-09-21T06:35:40.858Z,80.50
2018-09-21T06:40:43.993Z,81.20
2018-09-21T06:45:47.109Z,82.10
2018-09-21T06:50:50.240Z,82.60
2018-09-21T06:55:53.352Z,82.30
2018-09-21T07:00:56.464Z,81.60
2018-09-21T07:05:59.586Z,81.60
2018-09-21T07:11:02.697Z,81.60
2018-09-21T07:16:06.786Z,80.90
2018-09-21T07:21:09.888Z,80.60
2018-09-21T07:26:13.100Z,79.80
2018-09-21T07:31:16.279Z,78.90
2018-09-21T07:36:19.340Z,78.80
2018-09-21T07:41:22.444Z,77.70
2018-09-21T07:46:25.564Z,76.80
2018-09-21T07:51:28.656Z,76.50
2018-09-21T07:56:31.796Z,75.80
2018-09-21T08:01:34.904Z,75.20
2018-09-21T08:06:38.016Z,74.70
2018-09-21T08:11:41.136Z,73.90
2018-09-21T08:16:44.253Z,73.90
2018-09-21T08:21:47.400Z,73.20
2018-09-21T08:26:50.508Z,73.00
2018-09-21T08:31:53.656Z,72.60
2018-09-21T08:36:56.755Z,72.40
2018-09-21T08:41:59.871Z,71.90
2018-09-21T08:47:02.987Z,71.60
2018-09-21T08:52:06.116Z,71.00
2018-09-21T08:57:09.237Z,71.00
2018-09-21T09:02:12.344Z,70.70
2018-09-21T09:07:15.457Z,70.20
2018-09-21T09:12:18.564Z,70.00
2018-09-21T09:17:21.707Z,69.60
2018-09-21T09:22:24.899Z,68.90
2018-09-21T09:27:28.013Z,68.50
2018-09-21T09:32:31.122Z,68.00
2018-09-21T09:37:34.227Z,67.50
2018-09-21T09:42:37.469Z,67.00
2018-09-21T09:47:40.457Z,66.70
2018-09-21T09:52:43.572Z,66.20
2018-09-21T09:57:46.680Z,65.70
2018-09-21T10:02:49.796Z,65.60
2018-09-21T10:07:52.900Z,65.20
2018-09-21T10:12:56.032Z,64.20
2018-09-21T10:17:59.148Z,64.60
2018-09-21T10:23:03.161Z,64.00
2018-09-21T10:28:06.532Z,64.10
2018-09-21T10:33:09.583Z,63.00
2018-09-21T10:38:12.679Z,61.70
2018-09-21T10:43:15.878Z,61.70
2018-09-21T10:48:18.915Z,59.80
2018-09-21T10:53:22.160Z,60.20
2018-09-21T10:58:25.276Z,59.40
2018-09-21T11:03:28.412Z,58.80
2018-09-21T11:08:31.525Z,58.40
2018-09-21T11:13:34.640Z,58.80
2018-09-21T11:18:37.749Z,59.40
2018-09-21T11:23:40.864Z,58.40
2018-09-21T11:28:43.980Z,57.80
2018-09-21T11:33:47.092Z,56.90
2018-09-21T11:38:50.205Z,56.70
2018-09-21T11:43:53.317Z,57.40
2018-09-21T11:48:56.417Z,57.50
2018-09-21T11:53:59.610Z,56.30
2018-09-21T11:59:02.708Z,56.40
2018-09-21T12:04:05.885Z,56.50
2018-09-21T12:09:09.000Z,56.10
2018-09-21T12:14:12.135Z,55.30
2018-09-21T12:19:15.261Z,54.40
2018-09-21T12:24:18.371Z,54.50
2018-09-21T12:29:21.477Z,53.00
2018-09-21T12:34:24.605Z,51.90
2018-09-21T12:39:27.721Z,53.60
2018-09-21T12:44:30.878Z,52.70
2018-09-21T12:49:34.968Z,53.00
2018-09-21T12:54:38.360Z,52.60
2018-09-21T12:59:41.476Z,51.20
2018-09-21T13:04:44.597Z,50.90
2018-09-21T13:09:47.704Z,49.80
2018-09-21T13:14:50.808Z,48.70
2018-09-21T13:19:53.941Z,49.60
2018-09-21T13:24:57.046Z,48.90
2018-09-21T13:30:00.151Z,48.10
2018-09-21T13:35:03.307Z,45.80
2018-09-21T13:40:06.413Z,45.70
2018-09-21T13:45:09.520Z,45.30
2018-09-21T13:50:12.633Z,44.20
2018-09-21T13:55:15.752Z,44.60
2018-09-21T14:00:18.882Z,43.20
2018-09-21T14:05:22.204Z,44.10
2018-09-21T14:10:25.372Z,43.80
2018-09-21T14:15:28.484Z,44.20
2018-09-21T14:20:31.596Z,44.60
2018-09-21T14:25:34.696Z,44.20
2018-09-21T14:30:37.808Z,44.30
2018-09-21T14:35:40.936Z,45.20
2018-09-21T14:40:44.007Z,45.50
2018-09-21T14:45:47.122Z,45.60
2018-09-21T14:50:50.238Z,46.30
2018-09-21T14:55:53.377Z,45.90
2018-09-21T15:00:56.492Z,46.70
2018-09-21T15:05:59.650Z,47.60
2018-09-21T15:11:02.760Z,47.50
2018-09-21T15:16:05.885Z,46.30
2018-09-21T15:21:09.026Z,46.30
2018-09-21T15:26:12.150Z,46.50
2018-09-21T15:31:15.257Z,46.60
2018-09-21T15:36:19.273Z,46.80
2018-09-21T15:41:22.395Z,47.90
2018-09-21T15:46:25.496Z,47.90
2018-09-21T15:51:28.600Z,48.50
2018-09-21T15:56:31.733Z,48.60
2018-09-21T16:01:34.836Z,48.70
2018-09-21T16:06:37.937Z,48.50
2018-09-21T16:11:41.040Z,50.50
2018-09-21T16:16:44.152Z,51.40
2018-09-21T16:21:47.284Z,51.30
2018-09-21T16:26:50.453Z,52.00
2018-09-21T16:31:53.527Z,52.40
2018-09-21T16:36:56.648Z,53.40
2018-09-21T16:41:59.973Z,54.10
2018-09-21T16:47:03.060Z,54.40
2018-09-21T16:52:06.171Z,54.80
2018-09-21T16:57:09.270Z,55.90
2018-09-21T17:02:12.405Z,55.90
2018-09-21T17:07:16.756Z,56.20
2018-09-21T17:12:20.000Z,56.20
2018-09-21T17:17:23.125Z,55.90
2018-09-21T17:22:26.241Z,55.70
2018-09-21T17:27:29.379Z,55.80
2018-09-21T17:32:32.559Z,55.50
2018-09-21T17:37:35.678Z,56.00
2018-09-21T17:42:38.801Z,56.50
2018-09-21T17:47:42.062Z,56.70
2018-09-21T17:52:45.174Z,57.50
2018-09-21T17:57:48.257Z,57.70
2018-09-21T18:02:51.357Z,58.20
2018-09-21T18:07:54.465Z,58.30
2018-09-21T18:12:57.576Z,59.00
2018-09-21T18:18:00.686Z,59.20
2018-09-21T18:23:03.898Z,59.40
2018-09-21T18:28:07.032Z,60.80
2018-09-21T18:33:10.148Z,61.40
2018-09-21T18:38:13.284Z,61.80
2018-09-21T18:43:16.409Z,62.00
2018-09-21T18:48:19.510Z,60.40
2018-09-21T18:53:22.649Z,60.00
2018-09-21T18:58:25.772Z,59.40
2018-09-21T19:03:28.899Z,58.60
2018-09-21T19:08:32.018Z,58.30
2018-09-21T19:13:35.120Z,56.60
2018-09-21T19:18:38.267Z,56.30
2018-09-21T19:23:41.385Z,55.20
2018-09-21T19:28:44.496Z,55.20
2018-09-21T19:33:47.616Z,55.00
2018-09-21T19:38:50.727Z,55.00
2018-09-21T19:43:53.867Z,55.30
2018-09-21T19:48:56.974Z,55.90
2018-09-21T19:54:00.084Z,56.70
2018-09-21T19:59:03.205Z,56.90
2018-09-21T20:04:06.433Z,57.10
2018-09-21T20:09:11.391Z,58.00
2018-09-21T20:14:14.497Z,57.70
2018-09-21T20:19:17.605Z,58.20
2018-09-21T20:24:20.901Z,58.60
2018-09-21T20:29:24.062Z,58.60
2018-09-21T20:34:27.580Z,58.90
2018-09-21T20:39:31.069Z,59.40
2018-09-21T20:44:34.317Z,60.10
2018-09-21T20:49:37.401Z,60.40
2018-09-21T20:54:40.498Z,60.90
2018-09-21T20:59:43.728Z,61.30
2018-09-21T21:04:47.275Z,61.70
2018-09-21T21:09:50.364Z,61.40
2018-09-21T21:14:53.472Z,61.10
2018-09-21T21:19:56.592Z,61.10
2018-09-21T21:24:59.696Z,61.60
2018-09-21T21:30:02.813Z,61.60
2018-09-21T21:35:06.026Z,61.50
2018-09-21T21:40:09.128Z,61.70
2018-09-21T21:45:12.236Z,61.80
2018-09-21T21:50:15.341Z,61.40
2018-09-21T21:55:18.448Z,61.60
2018-09-21T22:00:21.560Z,61.60
2018-09-21T22:05:24.670Z,61.30
2018-09-21T22:10:27.777Z,61.50
2018-09-21T22:15:30.880Z,61.60
2018-09-21T22:20:34.107Z,61.70
2018-09-21T22:25:37.189Z,61.90
2018-09-21T22:30:40.297Z,61.80
2018-09-21T22:35:43.409Z,62.20
2018-09-21T22:40:46.512Z,61.80
2018-09-21T22:45:49.621Z,62.20
2018-09-21T22:50:52.729Z,62.50
2018-09-21T22:55:56.080Z,62.90
2018-09-21T23:00:59.193Z,62.90
2018-09-21T23:06:02.313Z,62.60
2018-09-21T23:11:05.585Z,63.10
2018-09-21T23:16:08.698Z,63.00
2018-09-21T23:21:11.805Z,63.50
2018-09-21T23:26:14.901Z,63.60
2018-09-21T23:31:18.007Z,63.50
2018-09-21T23:36:21.681Z,63.60
2018-09-21T23:41:24.785Z,63.70
2018-09-21T23:46:27.893Z,63.60
2018-09-21T23:51:30.991Z,63.50
2018-09-21T23:56:34.092Z,63.90
